Time;durP1;ratioP1;P1;durP2;ratioP2;P2;SDS_P1;SDS_P2;PMS_P1;PMS_P2;Temp;Humidity;BMP_temperature;BMP_pressure;BME280_temperature;BME280_humidity;BME280_pressure;Samples;Min_cycle;Max_cycle;Signal;HPM_P1;HPM_P2
2023/05/07 00:01:30;;;;;;;;;;;12.60;99.90;;;;;;5086225;28;19980;-68
2023/05/07 00:03:56;;;;;;;;;;;12.60;99.90;;;;;;5084135;28;19991;-68
2023/05/07 00:06:23;;;;;;;;;;;12.50;99.90;;;;;;5083344;28;20145;-69
2023/05/07 00:08:50;;;;;;;;;;;12.50;99.90;;;;;;5084203;28;20158;-69
2023/05/07 00:11:17;;;;;;;;;;;12.50;99.90;;;;;;5083798;28;19956;-71
2023/05/07 00:13:45;;;;;;;;;;;12.40;99.90;;;;;;5083738;28;19956;-69
2023/05/07 00:16:11;;;;;;;;;;;12.40;99.90;;;;;;5083517;28;19927;-68
2023/05/07 00:18:38;;;;;;;;;;;12.40;99.90;;;;;;5083980;28;19999;-68
2023/05/07 00:21:05;;;;;;;;;;;12.30;99.90;;;;;;5083913;28;19978;-69
2023/05/07 00:23:31;;;;;;;;;;;12.30;99.90;;;;;;5083853;28;19927;-69
2023/05/07 00:25:58;;;;;;;;;;;12.30;99.90;;;;;;5083742;28;19979;-68
2023/05/07 00:28:25;;;;;;;;;;;12.30;99.90;;;;;;5083718;28;19920;-69
2023/05/07 00:30:53;;;;;;;;;;;12.30;99.90;;;;;;5083847;28;19984;-69
2023/05/07 00:33:20;;;;;;;;;;;12.30;99.90;;;;;;5083754;28;19987;-69
2023/05/07 00:35:47;;;;;;;;;;;12.30;99.90;;;;;;5083454;28;19943;-68
2023/05/07 00:38:13;;;;;;;;;;;12.30;99.90;;;;;;5083532;28;19920;-69
2023/05/07 00:40:40;;;;;;;;;;;12.30;99.90;;;;;;5083590;28;19983;-69
2023/05/07 00:43:08;;;;;;;;;;;12.30;99.90;;;;;;5083584;28;20173;-69
2023/05/07 00:45:35;;;;;;;;;;;12.30;99.90;;;;;;5083215;28;20200;-69
2023/05/07 00:48:03;;;;;;;;;;;12.30;99.90;;;;;;5083465;28;19987;-70
2023/05/07 00:50:30;;;;;;;;;;;12.20;99.90;;;;;;5083568;28;19963;-69
2023/05/07 00:52:57;;;;;;;;;;;12.20;99.90;;;;;;5083532;28;19963;-68
2023/05/07 00:55:24;;;;;;;;;;;12.20;99.90;;;;;;5083351;28;19920;-69
2023/05/07 00:57:51;;;;;;;;;;;12.20;99.90;;;;;;5082990;28;19920;-68
2023/05/07 01:00:18;;;;;;;;;;;12.20;99.90;;;;;;5083397;28;19921;-68
2023/05/07 01:02:46;;;;;;;;;;;12.10;99.90;;;;;;5083245;28;19988;-69
2023/05/07 01:05:15;;;;;;;;;;;12.10;99.90;;;;;;5083297;28;19978;-68
2023/05/07 01:07:42;;;;;;;;;;;12.10;99.90;;;;;;5082913;28;19928;-70
2023/05/07 01:10:10;;;;;;;;;;;12.00;99.90;;;;;;5103291;28;19920;-68
2023/05/07 01:12:37;;;;;;;;;;;12.00;99.90;;;;;;5103721;28;19927;-69
2023/05/07 01:15:04;;;;;;;;;;;12.00;99.90;;;;;;5106663;28;19920;-68
2023/05/07 01:17:33;;;;;;;;;;;12.00;99.90;;;;;;5107182;28;19926;-68
2023/05/07 01:20:00;;;;;;;;;;;12.00;99.90;;;;;;5093389;28;20204;-70
2023/05/07 01:22:31;;;;;;;;;;;12.00;99.90;;;;;;5087307;28;19927;-70
2023/05/07 01:24:59;;;;;;;;;;;12.00;99.90;;;;;;5086865;28;20250;-69
2023/05/07 01:27:26;;;;;;;;;;;12.00;99.90;;;;;;5086652;28;19928;-68
2023/05/07 01:29:52;;;;;;;;;;;11.90;99.90;;;;;;5087229;28;19920;-69
2023/05/07 01:32:22;;;;;;;;;;;11.90;99.90;;;;;;5087082;28;19955;-70
2023/05/07 01:34:49;;;;;;;;;;;11.90;99.90;;;;;;5086875;28;20123;-68
2023/05/07 01:37:16;;;;;;;;;;;11.90;99.90;;;;;;5084291;28;19920;-68
2023/05/07 01:39:44;;;;;;;;;;;11.90;99.90;;;;;;5086950;28;19988;-69
2023/05/07 01:42:10;;;;;;;;;;;11.80;99.90;;;;;;5086706;28;19921;-68
2023/05/07 01:44:37;;;;;;;;;;;11.80;99.90;;;;;;5087079;28;19991;-68
2023/05/07 01:47:04;;;;;;;;;;;11.80;99.90;;;;;;5086115;28;19987;-69
2023/05/07 01:49:31;;;;;;;;;;;11.80;99.90;;;;;;5086897;28;19921;-68
2023/05/07 01:51:58;;;;;;;;;;;11.70;99.90;;;;;;5086818;28;19927;-68
2023/05/07 01:54:27;;;;;;;;;;;11.70;99.90;;;;;;5086530;28;19963;-69
2023/05/07 01:56:55;;;;;;;;;;;11.70;99.90;;;;;;5086114;28;19956;-69
2023/05/07 01:59:22;;;;;;;;;;;11.70;99.90;;;;;;5086324;28;20370;-69
2023/05/07 02:01:49;;;;;;;;;;;11.60;99.90;;;;;;5086343;28;20314;-68
2023/05/07 02:04:15;;;;;;;;;;;11.60;99.90;;;;;;5103684;28;19920;-69
2023/05/07 02:06:42;;;;;;;;;;;11.60;99.90;;;;;;5105033;28;19979;-68
2023/05/07 02:09:09;;;;;;;;;;;11.60;99.90;;;;;;5086172;28;19921;-69
2023/05/07 02:11:36;;;;;;;;;;;11.60;99.90;;;;;;5085008;28;19920;-69
2023/05/07 02:14:04;;;;;;;;;;;11.60;99.90;;;;;;5085191;28;19927;-69
2023/05/07 02:16:30;;;;;;;;;;;11.50;99.90;;;;;;5084564;28;19920;-69
2023/05/07 02:18:57;;;;;;;;;;;11.50;99.90;;;;;;5084974;28;20192;-68
2023/05/07 02:21:24;;;;;;;;;;;11.50;99.90;;;;;;5085084;28;19927;-68
2023/05/07 02:23:51;;;;;;;;;;;11.50;99.90;;;;;;5084781;28;19921;-69
2023/05/07 02:26:18;;;;;;;;;;;11.50;99.90;;;;;;5084084;28;19927;-69
2023/05/07 02:28:44;;;;;;;;;;;11.50;99.90;;;;;;5084753;28;19920;-68
2023/05/07 02:31:12;;;;;;;;;;;11.50;99.90;;;;;;5084645;28;19987;-68
2023/05/07 02:33:39;;;;;;;;;;;11.50;99.90;;;;;;5084869;28;19920;-69
2023/05/07 02:36:06;;;;;;;;;;;11.50;99.90;;;;;;5081981;28;19920;-68
2023/05/07 02:38:33;;;;;;;;;;;11.50;99.90;;;;;;5084715;28;19921;-69
2023/05/07 02:40:59;;;;;;;;;;;11.40;99.90;;;;;;5084791;28;19984;-68
2023/05/07 02:43:26;;;;;;;;;;;11.40;99.90;;;;;;5084425;28;19963;-68
2023/05/07 02:46:00;;;;;;;;;;;11.40;99.90;;;;;;5084039;28;20003;-69
2023/05/07 02:48:28;;;;;;;;;;;11.30;99.90;;;;;;5084356;28;20094;-69
2023/05/07 02:50:55;;;;;;;;;;;11.30;99.90;;;;;;5084380;28;19929;-68
2023/05/07 02:53:21;;;;;;;;;;;11.30;99.90;;;;;;5084484;28;19987;-68
2023/05/07 02:55:48;;;;;;;;;;;11.30;99.90;;;;;;5083896;28;19991;-67
2023/05/07 02:58:15;;;;;;;;;;;11.30;99.90;;;;;;5084197;28;19987;-70
2023/05/07 03:00:41;;;;;;;;;;;11.30;99.90;;;;;;5084612;28;20163;-70
2023/05/07 03:03:08;;;;;;;;;;;11.30;99.90;;;;;;5084364;28;19927;-68
2023/05/07 03:05:36;;;;;;;;;;;11.30;99.90;;;;;;5014661;28;1963222;-68
2023/05/07 03:08:03;;;;;;;;;;;11.20;99.90;;;;;;5085203;28;19920;-69
2023/05/07 03:10:30;;;;;;;;;;;11.30;99.90;;;;;;5085008;28;19956;-69
2023/05/07 03:12:57;;;;;;;;;;;11.20;99.90;;;;;;5085237;28;19920;-69
2023/05/07 03:15:23;;;;;;;;;;;11.20;99.90;;;;;;5085186;28;20151;-68
2023/05/07 03:17:50;;;;;;;;;;;11.20;99.90;;;;;;5093059;28;19993;-69
2023/05/07 03:20:16;;;;;;;;;;;11.20;99.90;;;;;;5105616;28;19962;-68
2023/05/07 03:22:44;;;;;;;;;;;11.20;99.90;;;;;;5104998;28;19920;-69
2023/05/07 03:25:11;;;;;;;;;;;11.20;99.90;;;;;;5104864;28;20208;-68
2023/05/07 03:27:38;;;;;;;;;;;11.10;99.90;;;;;;5104653;28;19928;-69
2023/05/07 03:30:06;;;;;;;;;;;11.20;99.90;;;;;;5104947;28;19988;-69
2023/05/07 03:32:33;;;;;;;;;;;11.10;99.90;;;;;;5105209;28;20011;-69
2023/05/07 03:34:59;;;;;;;;;;;11.10;99.90;;;;;;5105141;28;19951;-67
2023/05/07 03:37:26;;;;;;;;;;;11.10;99.90;;;;;;5102977;28;19955;-69
2023/05/07 03:39:54;;;;;;;;;;;11.10;99.90;;;;;;5104964;28;19943;-69
2023/05/07 03:42:21;;;;;;;;;;;11.00;99.90;;;;;;5102270;28;19948;-69
2023/05/07 03:44:47;;;;;;;;;;;11.00;99.90;;;;;;5104766;28;19926;-69
2023/05/07 03:47:14;;;;;;;;;;;11.00;99.90;;;;;;5103929;28;20279;-70
2023/05/07 03:49:41;;;;;;;;;;;11.00;99.90;;;;;;5104892;28;19962;-69
2023/05/07 03:52:07;;;;;;;;;;;11.00;99.90;;;;;;5104796;28;19983;-69
2023/05/07 03:54:34;;;;;;;;;;;11.00;99.90;;;;;;5103186;28;19983;-69
2023/05/07 03:57:02;;;;;;;;;;;10.90;99.90;;;;;;5104141;28;19920;-69
2023/05/07 03:59:29;;;;;;;;;;;10.90;99.90;;;;;;5104667;28;19920;-68
2023/05/07 04:01:55;;;;;;;;;;;10.90;99.90;;;;;;5104548;28;20160;-69
2023/05/07 04:04:22;;;;;;;;;;;10.90;99.90;;;;;;5104465;28;19990;-69
2023/05/07 04:06:49;;;;;;;;;;;10.90;99.90;;;;;;5103270;28;19983;-70
2023/05/07 04:09:15;;;;;;;;;;;10.90;99.90;;;;;;5104503;28;20154;-69
2023/05/07 04:11:42;;;;;;;;;;;10.90;99.90;;;;;;5104240;28;20506;-69
2023/05/07 04:14:10;;;;;;;;;;;10.90;99.90;;;;;;5104302;28;19962;-68
2023/05/07 04:16:36;;;;;;;;;;;10.90;99.90;;;;;;5103500;28;19935;-71
2023/05/07 04:19:03;;;;;;;;;;;10.80;99.90;;;;;;5104258;28;19951;-68
2023/05/07 04:21:30;;;;;;;;;;;10.90;99.90;;;;;;5103985;28;19926;-68
2023/05/07 04:23:57;;;;;;;;;;;10.90;99.90;;;;;;5104097;28;19920;-68
2023/05/07 04:26:24;;;;;;;;;;;10.90;99.90;;;;;;5103536;28;19991;-69
2023/05/07 04:28:50;;;;;;;;;;;10.90;99.90;;;;;;5104121;28;19924;-69
2023/05/07 04:31:18;;;;;;;;;;;11.00;99.90;;;;;;5104185;28;19920;-69
2023/05/07 04:33:45;;;;;;;;;;;10.90;99.90;;;;;;5103939;28;19927;-69
2023/05/07 04:36:12;;;;;;;;;;;11.00;99.90;;;;;;5101235;28;19956;-69
2023/05/07 04:38:38;;;;;;;;;;;11.00;99.90;;;;;;5103619;28;19927;-68
2023/05/07 04:41:05;;;;;;;;;;;11.10;99.90;;;;;;5104073;28;20153;-71
2023/05/07 04:43:32;;;;;;;;;;;11.10;99.90;;;;;;5104151;28;19924;-69
2023/05/07 04:45:59;;;;;;;;;;;11.10;99.90;;;;;;5103290;28;19991;-68
2023/05/07 04:48:27;;;;;;;;;;;11.20;99.90;;;;;;5103525;28;19928;-69
2023/05/07 04:50:53;;;;;;;;;;;11.20;99.90;;;;;;5103836;28;19938;-71
2023/05/07 04:53:20;;;;;;;;;;;11.20;99.90;;;;;;5103457;28;19963;-68
2023/05/07 04:55:47;;;;;;;;;;;11.20;99.90;;;;;;5101366;28;20166;-69
2023/05/07 04:58:13;;;;;;;;;;;11.30;99.90;;;;;;5103272;28;19920;-68
2023/05/07 05:00:40;;;;;;;;;;;11.40;99.90;;;;;;5103686;28;19991;-68
2023/05/07 05:03:07;;;;;;;;;;;11.40;99.90;;;;;;5103705;28;19955;-68
2023/05/07 05:05:35;;;;;;;;;;;11.40;99.90;;;;;;5103428;28;19919;-69
2023/05/07 05:08:01;;;;;;;;;;;11.40;99.90;;;;;;5103211;28;19924;-71
2023/05/07 05:10:28;;;;;;;;;;;11.40;99.90;;;;;;5103649;28;19920;-68
2023/05/07 05:12:55;;;;;;;;;;;11.50;99.90;;;;;;5103692;28;19983;-68
2023/05/07 05:15:21;;;;;;;;;;;11.50;99.90;;;;;;5103470;28;19983;-70
2023/05/07 05:17:48;;;;;;;;;;;11.60;99.90;;;;;;5103040;28;19922;-69
2023/05/07 05:20:14;;;;;;;;;;;11.60;99.90;;;;;;5103511;28;19974;-68
2023/05/07 05:22:43;;;;;;;;;;;11.60;99.90;;;;;;5103233;28;20223;-69
2023/05/07 05:25:09;;;;;;;;;;;11.70;99.90;;;;;;5103203;28;20227;-68
2023/05/07 05:27:36;;;;;;;;;;;11.70;99.90;;;;;;5102992;28;19956;-69
2023/05/07 05:30:03;;;;;;;;;;;11.80;99.90;;;;;;5103509;28;19927;-70
2023/05/07 05:32:29;;;;;;;;;;;11.80;99.90;;;;;;5103127;28;19988;-69
2023/05/07 05:34:56;;;;;;;;;;;11.80;99.90;;;;;;5103343;28;19981;-68
2023/05/07 05:37:23;;;;;;;;;;;11.80;99.90;;;;;;5100847;28;19961;-68
2023/05/07 05:39:51;;;;;;;;;;;11.80;99.90;;;;;;5083207;28;19988;-68
2023/05/07 05:42:17;;;;;;;;;;;11.90;99.90;;;;;;5083193;28;19959;-69
2023/05/07 05:44:44;;;;;;;;;;;12.00;99.90;;;;;;5082989;28;19920;-68
2023/05/07 05:47:11;;;;;;;;;;;12.10;99.90;;;;;;5082959;28;19926;-68
2023/05/07 05:49:37;;;;;;;;;;;12.10;99.90;;;;;;5083044;28;19927;-68
2023/05/07 05:52:04;;;;;;;;;;;12.20;99.90;;;;;;5082736;28;20275;-69
2023/05/07 05:54:31;;;;;;;;;;;12.20;99.90;;;;;;5082740;28;19983;-68
2023/05/07 05:56:59;;;;;;;;;;;12.40;99.90;;;;;;5082098;28;20232;-69
2023/05/07 05:59:25;;;;;;;;;;;12.50;99.90;;;;;;5083473;28;20363;-68
2023/05/07 06:01:52;;;;;;;;;;;12.50;99.90;;;;;;5086653;28;20112;-69
2023/05/07 06:04:19;;;;;;;;;;;12.60;99.90;;;;;;5086209;28;19962;-68
2023/05/07 06:06:45;;;;;;;;;;;12.70;99.90;;;;;;5085479;28;19979;-69
2023/05/07 06:09:12;;;;;;;;;;;12.80;99.90;;;;;;5086407;28;20056;-69
2023/05/07 06:11:39;;;;;;;;;;;12.90;99.90;;;;;;5086596;28;19983;-68
2023/05/07 06:14:07;;;;;;;;;;;12.90;99.90;;;;;;5086359;28;19989;-68
2023/05/07 06:16:34;;;;;;;;;;;13.00;99.90;;;;;;5085618;28;19920;-69
2023/05/07 06:19:00;;;;;;;;;;;13.10;99.90;;;;;;5098409;28;19926;-69
2023/05/07 06:21:27;;;;;;;;;;;13.20;99.90;;;;;;5106685;28;19959;-68
2023/05/07 06:23:54;;;;;;;;;;;13.30;99.90;;;;;;5106453;28;19919;-68
2023/05/07 06:26:21;;;;;;;;;;;13.30;99.90;;;;;;5105724;28;19920;-69
2023/05/07 06:28:47;;;;;;;;;;;13.40;99.90;;;;;;5106455;28;19951;-68
2023/05/07 06:31:16;;;;;;;;;;;13.40;99.90;;;;;;5105979;28;20239;-72
2023/05/07 06:33:43;;;;;;;;;;;13.40;99.90;;;;;;5106374;28;19920;-69
2023/05/07 06:36:10;;;;;;;;;;;13.50;99.90;;;;;;5103561;28;19920;-68
2023/05/07 06:38:37;;;;;;;;;;;13.60;99.90;;;;;;5105736;28;20208;-70
2023/05/07 06:41:04;;;;;;;;;;;13.60;99.90;;;;;;5106258;28;19992;-69
2023/05/07 06:43:30;;;;;;;;;;;13.70;99.90;;;;;;5106107;28;19973;-69
2023/05/07 06:45:57;;;;;;;;;;;13.70;99.90;;;;;;5105358;28;20303;-67
2023/05/07 06:48:25;;;;;;;;;;;13.80;99.90;;;;;;5105660;28;19991;-67
2023/05/07 06:50:51;;;;;;;;;;;13.80;99.90;;;;;;5106021;28;19986;-68
2023/05/07 06:53:18;;;;;;;;;;;13.90;99.90;;;;;;5105623;28;20279;-68
2023/05/07 06:55:45;;;;;;;;;;;13.90;99.90;;;;;;5105123;28;19991;-68
2023/05/07 06:58:11;;;;;;;;;;;13.90;99.90;;;;;;5105691;28;19920;-67
2023/05/07 07:00:38;;;;;;;;;;;14.00;99.90;;;;;;5102148;28;20046;-68
2023/05/07 07:03:04;;;;;;;;;;;14.10;99.90;;;;;;5105213;28;20093;-67
2023/05/07 07:05:33;;;;;;;;;;;14.10;99.90;;;;;;5105149;28;19963;-71
2023/05/07 07:07:59;;;;;;;;;;;14.20;99.90;;;;;;5105725;28;19979;-68
2023/05/07 07:10:26;;;;;;;;;;;14.30;99.90;;;;;;5104904;28;19987;-68
2023/05/07 07:12:53;;;;;;;;;;;14.40;99.90;;;;;;5104816;28;19988;-68
2023/05/07 07:15:21;;;;;;;;;;;14.50;99.90;;;;;;5105196;28;20220;-68
2023/05/07 07:17:48;;;;;;;;;;;14.50;99.90;;;;;;5105176;28;20084;-68
2023/05/07 07:20:15;;;;;;;;;;;14.60;99.90;;;;;;5104947;28;20296;-68
2023/05/07 07:22:43;;;;;;;;;;;14.70;99.90;;;;;;5104287;28;19926;-68
2023/05/07 07:25:10;;;;;;;;;;;14.80;99.90;;;;;;5105095;28;19920;-68
2023/05/07 07:27:37;;;;;;;;;;;14.80;99.90;;;;;;5104850;28;20112;-69
2023/05/07 07:30:04;;;;;;;;;;;14.90;99.90;;;;;;5105165;28;20112;-68
2023/05/07 07:32:32;;;;;;;;;;;15.10;99.90;;;;;;5105040;28;19920;-67
2023/05/07 07:34:59;;;;;;;;;;;15.20;99.90;;;;;;5104683;28;19934;-70
2023/05/07 07:37:25;;;;;;;;;;;15.20;99.90;;;;;;5104801;28;19988;-68
2023/05/07 07:39:53;;;;;;;;;;;15.30;99.90;;;;;;5105211;28;20300;-68
2023/05/07 07:42:20;;;;;;;;;;;15.30;99.90;;;;;;5104712;28;20093;-68
2023/05/07 07:44:48;;;;;;;;;;;15.30;99.90;;;;;;5124593;28;19984;-68
2023/05/07 07:47:15;;;;;;;;;;;15.40;99.90;;;;;;5120730;28;19996;-69
2023/05/07 07:49:41;;;;;;;;;;;15.40;99.90;;;;;;5104400;28;19983;-67
2023/05/07 07:52:08;;;;;;;;;;;15.40;99.90;;;;;;5104670;28;19919;-69
2023/05/07 07:54:35;;;;;;;;;;;15.50;99.90;;;;;;5083779;28;20028;-68
2023/05/07 07:57:03;;;;;;;;;;;15.50;99.90;;;;;;5082354;28;20013;-68
2023/05/07 07:59:29;;;;;;;;;;;15.60;99.90;;;;;;5083927;28;19987;-68
2023/05/07 08:01:56;;;;;;;;;;;15.70;99.90;;;;;;5104406;28;19987;-69
2023/05/07 08:04:23;;;;;;;;;;;15.80;99.90;;;;;;5104299;28;19952;-68
2023/05/07 08:06:50;;;;;;;;;;;16.00;99.90;;;;;;5103594;28;19959;-67
2023/05/07 08:09:16;;;;;;;;;;;16.00;99.90;;;;;;5104167;28;19928;-68
2023/05/07 08:11:43;;;;;;;;;;;16.00;99.90;;;;;;5104170;28;19927;-67
2023/05/07 08:14:12;;;;;;;;;;;16.10;99.90;;;;;;5103970;28;19920;-67
2023/05/07 08:16:38;;;;;;;;;;;16.20;99.90;;;;;;5103518;28;19952;-68
2023/05/07 08:19:05;;;;;;;;;;;16.20;99.90;;;;;;5103681;28;19970;-69
2023/05/07 08:21:31;;;;;;;;;;;16.20;99.90;;;;;;5103927;28;19987;-67
2023/05/07 08:23:58;;;;;;;;;;;16.30;99.90;;;;;;5103224;28;19920;-68
2023/05/07 08:26:25;;;;;;;;;;;16.20;99.90;;;;;;5103633;28;19986;-67
2023/05/07 08:28:51;;;;;;;;;;;16.30;99.90;;;;;;5104201;28;19948;-69
2023/05/07 08:31:19;;;;;;;;;;;16.40;99.90;;;;;;5103523;28;20354;-69
2023/05/07 08:33:46;;;;;;;;;;;16.50;99.90;;;;;;5103456;28;20024;-69
2023/05/07 08:36:12;;;;;;;;;;;16.70;99.90;;;;;;5103493;28;19920;-70
2023/05/07 08:38:42;;;;;;;;;;;16.90;99.90;;;;;;5103416;28;19920;-69
2023/05/07 08:41:10;;;;;;;;;;;16.90;99.90;;;;;;5103648;28;19920;-68
2023/05/07 08:43:38;;;;;;;;;;;17.00;99.90;;;;;;5103182;28;19920;-69
2023/05/07 08:46:05;;;;;;;;;;;17.00;99.90;;;;;;5102767;28;20227;-68
2023/05/07 08:48:33;;;;;;;;;;;17.10;99.90;;;;;;5105203;28;19920;-69
2023/05/07 08:51:00;;;;;;;;;;;17.10;99.90;;;;;;5103338;28;19926;-69
2023/05/07 08:53:26;;;;;;;;;;;17.20;99.90;;;;;;5103012;28;20192;-68
2023/05/07 08:55:53;;;;;;;;;;;17.20;99.90;;;;;;5102674;28;19987;-69
2023/05/07 08:58:20;;;;;;;;;;;17.30;99.90;;;;;;5098299;28;19992;-69
2023/05/07 09:00:47;;;;;;;;;;;17.30;99.90;;;;;;5083345;28;20163;-69
2023/05/07 09:03:14;;;;;;;;;;;17.40;99.90;;;;;;5087839;28;19927;-70
2023/05/07 09:05:43;;;;;;;;;;;17.40;99.90;;;;;;5102993;28;19926;-69
2023/05/07 09:08:10;;;;;;;;;;;17.50;99.90;;;;;;5103304;28;19970;-69
2023/05/07 09:10:36;;;;;;;;;;;17.60;99.90;;;;;;5103664;28;20160;-69
2023/05/07 09:13:03;;;;;;;;;;;17.60;99.90;;;;;;5101946;28;19967;-69
2023/05/07 09:15:30;;;;;;;;;;;17.60;99.90;;;;;;5103200;28;20240;-68
2023/05/07 09:18:00;;;;;;;;;;;17.70;99.90;;;;;;5103104;28;19958;-69
2023/05/07 09:20:27;;;;;;;;;;;17.70;99.90;;;;;;5103273;28;20013;-68
2023/05/07 09:22:57;;;;;;;;;;;17.70;99.90;;;;;;5103403;28;19958;-70
2023/05/07 09:25:28;;;;;;;;;;;17.80;99.90;;;;;;5083056;28;20183;-69
2023/05/07 09:27:55;;;;;;;;;;;17.90;99.90;;;;;;5084784;28;19920;-71
2023/05/07 09:30:22;;;;;;;;;;;17.90;99.90;;;;;;5102797;28;19951;-69
2023/05/07 09:32:49;;;;;;;;;;;18.00;99.90;;;;;;5096621;28;19988;-69
2023/05/07 09:35:16;;;;;;;;;;;18.10;99.90;;;;;;5103688;28;19920;-69
2023/05/07 09:37:43;;;;;;;;;;;18.20;99.90;;;;;;5107000;28;19966;-70
2023/05/07 09:40:20;;;;;;;;;;;18.30;99.90;;;;;;5107202;28;20115;-71
2023/05/07 09:42:47;;;;;;;;;;;18.40;99.90;;;;;;5106831;28;19946;-69
2023/05/07 09:45:14;;;;;;;;;;;18.50;99.90;;;;;;5107031;28;19920;-69
2023/05/07 09:47:44;;;;;;;;;;;18.60;99.90;;;;;;5105729;28;19995;-68
2023/05/07 09:50:11;;;;;;;;;;;18.60;99.90;;;;;;5106123;28;19920;-68
2023/05/07 09:52:39;;;;;;;;;;;18.70;99.90;;;;;;5105419;28;19920;-69
2023/05/07 09:55:06;;;;;;;;;;;18.80;99.90;;;;;;5105997;28;19957;-69
2023/05/07 09:57:34;;;;;;;;;;;18.80;99.90;;;;;;5106272;28;19920;-69
2023/05/07 10:00:04;;;;;;;;;;;18.90;99.90;;;;;;5106982;28;19985;-68
2023/05/07 10:02:31;;;;;;;;;;;19.10;99.90;;;;;;5106658;28;19983;-69
2023/05/07 10:05:00;;;;;;;;;;;19.20;99.90;;;;;;5104197;28;19927;-68
2023/05/07 10:07:27;;;;;;;;;;;19.40;99.90;;;;;;5094664;28;19920;-68
2023/05/07 10:09:54;;;;;;;;;;;19.50;99.90;;;;;;5095217;28;19920;-68
2023/05/07 10:12:21;;;;;;;;;;;19.60;99.90;;;;;;5106734;28;19943;-70
2023/05/07 10:14:49;;;;;;;;;;;19.70;99.90;;;;;;5106591;28;19920;-70
2023/05/07 10:17:17;;;;;;;;;;;19.80;99.90;;;;;;5106329;28;20139;-69
2023/05/07 10:19:45;;;;;;;;;;;19.80;99.90;;;;;;5106575;28;20161;-70
2023/05/07 10:22:12;;;;;;;;;;;19.80;99.90;;;;;;5101623;28;20160;-69
2023/05/07 10:24:38;;;;;;;;;;;19.90;99.90;;;;;;5085387;28;19984;-70
2023/05/07 10:27:06;;;;;;;;;;;19.90;99.90;;;;;;5085839;28;19963;-69
2023/05/07 10:29:38;;;;;;;;;;;20.00;99.90;;;;;;5085796;28;19920;-74
2023/05/07 10:32:14;;;;;;;;;;;20.10;99.90;;;;;;5090086;28;20163;-70
2023/05/07 10:34:42;;;;;;;;;;;20.20;99.90;;;;;;5085677;28;19920;-68
2023/05/07 10:37:10;;;;;;;;;;;20.30;99.90;;;;;;5084955;28;20380;-69
2023/05/07 10:39:37;;;;;;;;;;;20.40;99.90;;;;;;5085516;28;20116;-69
2023/05/07 10:42:10;;;;;;;;;;;20.50;99.90;;;;;;5082907;28;19991;-70
2023/05/07 10:44:37;;;;;;;;;;;20.70;99.90;;;;;;5085373;28;19927;-70
2023/05/07 10:47:10;;;;;;;;;;;20.90;99.90;;;;;;5084281;28;19921;-69
2023/05/07 10:49:58;;;;;;;;;;;21.20;99.90;;;;;;5085778;28;20036;-69
2023/05/07 10:52:25;;;;;;;;;;;21.50;99.90;;;;;;5085266;28;19920;-68
2023/05/07 10:55:21;;;;;;;;;;;21.80;99.90;;;;;;5085528;28;19955;-70
2023/05/07 10:57:47;;;;;;;;;;;22.00;99.90;;;;;;5085143;28;19983;-70
2023/05/07 11:00:29;;;;;;;;;;;22.10;99.90;;;;;;5085476;28;20055;-70
2023/05/07 11:03:06;;;;;;;;;;;22.00;99.90;;;;;;5084986;28;19920;-69
2023/05/07 11:05:34;;;;;;;;;;;22.00;99.90;;;;;;5085215;28;19936;-70
2023/05/07 11:08:02;;;;;;;;;;;22.00;99.90;;;;;;5085096;28;19927;-68
2023/05/07 11:10:43;;;;;;;;;;;22.10;99.90;;;;;;5085291;28;19963;-69
2023/05/07 11:13:10;;;;;;;;;;;22.00;99.90;;;;;;5084659;28;19920;-70
2023/05/07 11:15:38;;;;;;;;;;;22.10;99.90;;;;;;5085523;28;20107;-70
2023/05/07 11:18:05;;;;;;;;;;;22.30;99.90;;;;;;5101908;28;19959;-70
2023/05/07 11:20:47;;;;;;;;;;;22.60;99.90;;;;;;5104203;28;20222;-69
2023/05/07 11:23:28;;;;;;;;;;;22.80;99.90;;;;;;5103673;28;19983;-68
2023/05/07 11:25:59;;;;;;;;;;;23.00;99.90;;;;;;5083847;28;19928;-70
2023/05/07 11:28:26;;;;;;;;;;;23.30;99.90;;;;;;5083227;28;19921;-68
2023/05/07 11:30:53;;;;;;;;;;;23.50;99.90;;;;;;5084692;28;19987;-67
2023/05/07 11:33:20;;;;;;;;;;;23.60;99.90;;;;;;5084491;28;19927;-66
2023/05/07 11:35:48;;;;;;;;;;;23.60;99.90;;;;;;5083930;28;19988;-67
2023/05/07 11:38:17;;;;;;;;;;;23.70;99.90;;;;;;5084358;28;19948;-67
2023/05/07 11:40:53;;;;;;;;;;;23.70;99.90;;;;;;5084656;28;19920;-66
2023/05/07 11:43:20;;;;;;;;;;;24.00;99.90;;;;;;5084533;28;19987;-67
2023/05/07 11:45:47;;;;;;;;;;;24.10;99.90;;;;;;5081656;28;20227;-66
2023/05/07 11:48:14;;;;;;;;;;;24.10;99.90;;;;;;5084403;28;19920;-70
2023/05/07 11:50:52;;;;;;;;;;;24.10;99.90;;;;;;5084489;28;19920;-69
2023/05/07 11:53:19;;;;;;;;;;;24.00;99.90;;;;;;5084257;28;19920;-68
2023/05/07 11:55:46;;;;;;;;;;;24.00;99.90;;;;;;5083738;28;19920;-70
2023/05/07 11:58:13;;;;;;;;;;;24.10;99.90;;;;;;5083391;28;19921;-66
2023/05/07 12:00:48;;;;;;;;;;;24.10;99.90;;;;;;5084227;28;20224;-67
2023/05/07 12:03:15;;;;;;;;;;;24.00;99.90;;;;;;5083821;28;19927;-69
2023/05/07 12:05:42;;;;;;;;;;;23.90;99.90;;;;;;5083852;28;19951;-68
2023/05/07 12:08:14;;;;;;;;;;;24.00;99.90;;;;;;5083446;28;19974;-67
2023/05/07 12:10:41;;;;;;;;;;;24.00;99.90;;;;;;5084209;28;19920;-67
2023/05/07 12:13:14;;;;;;;;;;;23.90;99.90;;;;;;5083983;28;19994;-69
2023/05/07 12:15:41;;;;;;;;;;;23.90;99.90;;;;;;5083681;28;19921;-69
2023/05/07 12:18:08;;;;;;;;;;;24.00;99.90;;;;;;5083312;28;19951;-70
2023/05/07 12:20:34;;;;;;;;;;;24.00;99.90;;;;;;5083909;28;19920;-70
2023/05/07 12:23:02;;;;;;;;;;;24.00;99.90;;;;;;5083934;28;19920;-68
2023/05/07 12:25:32;;;;;;;;;;;24.10;99.90;;;;;;5083417;28;20218;-67
2023/05/07 12:28:01;;;;;;;;;;;24.30;99.90;;;;;;5083310;28;19921;-66
2023/05/07 12:30:36;;;;;;;;;;;24.50;99.90;;;;;;5089776;28;20113;-67
2023/05/07 12:33:06;;;;;;;;;;;24.90;99.90;;;;;;5102843;28;19920;-66
2023/05/07 12:35:36;;;;;;;;;;;25.10;99.90;;;;;;5100352;28;19964;-64
2023/05/07 12:38:04;;;;;;;;;;;25.20;99.90;;;;;;5083661;28;20254;-67
2023/05/07 12:40:37;;;;;;;;;;;25.30;99.90;;;;;;5083785;28;20093;-66
2023/05/07 12:43:04;;;;;;;;;;;25.60;99.90;;;;;;5092389;28;19921;-67
2023/05/07 12:45:31;;;;;;;;;;;25.50;99.90;;;;;;5103848;28;19986;-66
2023/05/07 12:48:01;;;;;;;;;;;25.50;99.90;;;;;;5100853;28;20258;-67
2023/05/07 12:50:31;;;;;;;;;;;25.30;99.90;;;;;;5103440;28;19931;-67
2023/05/07 12:52:58;;;;;;;;;;;25.20;99.90;;;;;;5083707;28;19984;-68
2023/05/07 12:55:25;;;;;;;;;;;25.30;99.90;;;;;;5083415;28;19928;-67
2023/05/07 12:57:53;;;;;;;;;;;25.60;99.90;;;;;;5081118;28;19980;-67
2023/05/07 13:00:32;;;;;;;;;;;25.80;99.90;;;;;;5083245;28;19984;-67
2023/05/07 13:02:59;;;;;;;;;;;25.60;99.90;;;;;;5100659;28;19995;-67
2023/05/07 13:05:26;;;;;;;;;;;25.70;99.90;;;;;;5102544;28;19920;-68
2023/05/07 13:07:55;;;;;;;;;;;25.90;99.90;;;;;;5100978;28;19924;-69
2023/05/07 13:10:22;;;;;;;;;;;25.90;99.30;;;;;;5087280;28;19991;-68
2023/05/07 13:12:49;;;;;;;;;;;25.90;99.90;;;;;;5086948;28;19920;-69
2023/05/07 13:15:17;;;;;;;;;;;26.10;99.90;;;;;;5087255;28;19956;-67
2023/05/07 13:17:44;;;;;;;;;;;26.10;98.70;;;;;;5087128;28;19992;-69
2023/05/07 13:20:12;;;;;;;;;;;26.20;97.00;;;;;;5087279;28;19920;-67
2023/05/07 13:22:39;;;;;;;;;;;26.40;97.70;;;;;;5086905;28;20154;-68
2023/05/07 13:25:06;;;;;;;;;;;26.60;96.60;;;;;;5086225;28;19962;-68
2023/05/07 13:27:36;;;;;;;;;;;26.40;97.60;;;;;;5082840;28;19927;-69
2023/05/07 13:30:03;;;;;;;;;;;26.60;98.10;;;;;;5086573;28;19928;-68
2023/05/07 13:32:32;;;;;;;;;;;27.00;98.50;;;;;;5086866;28;19996;-69
2023/05/07 13:34:59;;;;;;;;;;;27.30;97.90;;;;;;5102322;28;19924;-68
2023/05/07 13:37:25;;;;;;;;;;;27.50;95.90;;;;;;5106895;28;19920;-69
2023/05/07 13:39:52;;;;;;;;;;;27.70;95.80;;;;;;5106937;28;20167;-68
2023/05/07 13:42:18;;;;;;;;;;;28.00;95.90;;;;;;5102569;28;19984;-68
2023/05/07 13:44:45;;;;;;;;;;;27.90;94.20;;;;;;5086844;28;19979;-68
2023/05/07 13:47:12;;;;;;;;;;;27.90;94.70;;;;;;5092208;28;19962;-67
2023/05/07 13:49:40;;;;;;;;;;;27.90;93.20;;;;;;5106629;28;19988;-68
2023/05/07 13:52:07;;;;;;;;;;;27.90;95.00;;;;;;5107095;28;20293;-68
2023/05/07 13:54:33;;;;;;;;;;;27.90;94.40;;;;;;5106646;28;20259;-68
2023/05/07 13:57:00;;;;;;;;;;;28.00;93.20;;;;;;5105961;28;19927;-68
2023/05/07 13:59:26;;;;;;;;;;;28.00;92.80;;;;;;5106964;28;19943;-68
2023/05/07 14:01:54;;;;;;;;;;;27.80;93.10;;;;;;5106688;28;20288;-69
2023/05/07 14:04:21;;;;;;;;;;;27.70;93.90;;;;;;5106846;28;19992;-69
2023/05/07 14:06:49;;;;;;;;;;;27.70;92.20;;;;;;5105323;28;19983;-68
2023/05/07 14:09:15;;;;;;;;;;;27.40;92.20;;;;;;5106087;28;19920;-68
2023/05/07 14:11:42;;;;;;;;;;;27.40;94.10;;;;;;5106696;28;19994;-68
2023/05/07 14:14:10;;;;;;;;;;;27.40;92.60;;;;;;5106330;28;20153;-67
2023/05/07 14:16:37;;;;;;;;;;;27.20;94.10;;;;;;5105502;28;19966;-67
2023/05/07 14:19:03;;;;;;;;;;;27.10;95.10;;;;;;5106380;28;19988;-70